1999 CHIKITA (1999029S14096)


On this page: IBTrACS data - Map and Plots - Positions - Intensities - Original source data

Summary

Start Jan 29
End Feb 5
Basin SI
LMI 45 kt
Sources jtwc_sh
reunion
neumann
In WMO? Yes
Previous storm 1999 HSK1799 (SP)
Previous in basin 1999 BIRENDA (SI)
Concurrent storms 1999 DANI (SP)
1999 BIRENDA (SI)
1999 PETE (SP)
1999 CHIKITA (SI)
1999 MISSING (NI)
1999 HSK1999 (SI)
Next in basin 1999 HSK1999 (SI)
Next storm 1999 MISSING (NI)

top of page IBTrACS Data: File Access

top of page HURSAT Data: File Access

Image of storm

top of page Plots:

Map of storm track will not appear if FTP is down
Time series of cyclone Maximum Sustained Wind will not appear if FTP is down
Time series of cyclone Minimum Central Pressure will not appear if FTP is down

top of page Track Data:Position

jtwc_sh reunion neumann
Date Lat Lon Lat Lon Lat Lon
1999-01-29 06:00:00 -13.7 96.3
1999-01-29 12:00:00 -14.0 95.6 -14.2 95.2 -14.2 95.2
1999-01-29 18:00:00 -14.4 94.8 -14.4 94.3 -14.4 94.3
1999-01-30 00:00:00 -14.7 93.9 -14.5 93.6 -14.5 93.6
1999-01-30 06:00:00 -15.0 93.0 -15.0 93.0 -15.0 93.0
1999-01-30 12:00:00 -15.5 91.9 -15.5 92.3 -15.5 92.3
1999-01-30 18:00:00 -15.9 90.5 -16.1 90.2 -16.1 90.2
1999-01-31 00:00:00 -16.4 88.6 -16.7 88.1 -16.7 88.1
1999-01-31 06:00:00 -16.8 85.9 -17.0 86.1 -17.0 86.1
1999-01-31 12:00:00 -17.3 83.2 -17.2 83.7 -17.2 83.7
1999-01-31 18:00:00 -18.0 81.5 -17.9 82.0 -17.9 82.0
1999-02-01 00:00:00 -18.4 80.1 -18.4 80.7 -18.4 80.7
1999-02-01 06:00:00 -18.8 78.7 -18.9 79.1 -18.9 79.1
1999-02-01 12:00:00 -19.1 77.3 -19.4 77.5 -19.4 77.5
1999-02-01 18:00:00 -19.4 75.9 -19.3 75.8 -19.3 75.8
1999-02-02 00:00:00 -19.4 74.3 -19.3 73.8 -19.3 73.8
1999-02-02 06:00:00 -19.5 72.3 -19.4 71.7 -19.4 71.7
1999-02-02 12:00:00 -19.8 69.4 -19.4 69.3 -19.4 69.3
1999-02-02 18:00:00 -19.7 67.7 -19.3 67.1 -19.3 67.1
1999-02-03 00:00:00 -19.7 66.0 -19.2 64.7 -19.2 64.7
1999-02-03 06:00:00 -19.4 63.6 -18.7 62.8 -18.7 62.8
1999-02-03 12:00:00 -19.0 61.7 -18.3 61.3 -18.3 61.3
1999-02-03 18:00:00 -18.9 59.5 -18.2 59.3 -18.2 59.3
1999-02-04 00:00:00 -19.3 57.9 -18.4 57.4 -18.4 57.4
1999-02-04 06:00:00 -19.5 55.8 -18.6 56.1 -18.6 56.1
jtwc_sh reunion neumann
1999-02-04 12:00:00 -19.5 54.0 -19.5 54.6 -19.5 54.6
1999-02-04 18:00:00 -19.9 52.6 -19.7 53.0 -19.7 53.0
1999-02-05 00:00:00 -21.0 51.3 -19.9 51.7 -19.9 51.7
1999-02-05 06:00:00 -22.2 49.9 -20.3 50.6 -20.3 50.6

top of pageTrack Data:Intensity

jtwc_sh reunion neumann
Date Wind Pres Wind Pres Wind Pres
1999-01-29 06:00:00 20.
1999-01-29 12:00:00 20. 20. 1001. 25. 1001.
1999-01-29 18:00:00 25. 20. 1001. 25. 1001.
1999-01-30 00:00:00 25. 20. 1001. 25. 1001.
1999-01-30 06:00:00 25. 20. 1000. 30. 1000.
1999-01-30 12:00:00 25. 25. 999. 30. 999.
1999-01-30 18:00:00 30. 25. 999. 30. 999.
1999-01-31 00:00:00 30. 25. 999. 30. 999.
1999-01-31 06:00:00 35. 30. 995. 40. 995.
1999-01-31 12:00:00 40. 37. 990. 45. 990.
1999-01-31 18:00:00 40. 37. 990. 45. 990.
1999-02-01 00:00:00 40. 37. 990. 45. 990.
1999-02-01 06:00:00 40. 35. 992. 45. 992.
1999-02-01 12:00:00 40. 30. 996. 35. 996.
1999-02-01 18:00:00 40. 28. 998. 35. 998.
1999-02-02 00:00:00 40. 28. 998. 35. 998.
1999-02-02 06:00:00 40. 28. 998. 35. 998.
1999-02-02 12:00:00 40. 28. 998. 35. 998.
1999-02-02 18:00:00 40. 30. 997. 35. 997.
1999-02-03 00:00:00 40. 30. 997. 35. 997.
1999-02-03 06:00:00 35. 30. 997. 35. 997.
1999-02-03 12:00:00 35. 30. 997. 35. 997.
1999-02-03 18:00:00 25. 28. 998. 35. 998.
1999-02-04 00:00:00 25. 25. 999. 30. 999.
1999-02-04 06:00:00 25. 25. 1000. 30. 1000.
jtwc_sh reunion neumann
1999-02-04 12:00:00 25. 25. 1000. 30. 1000.
1999-02-04 18:00:00 30. 25. 1000. 30. 1000.
1999-02-05 00:00:00 25. 20. 1002. 25. 1002.
1999-02-05 06:00:00 25. 20. 1004. 20. 1004.

top of page Links to source data

Source Source file Format
jtwc_sh bsh171999.txt ATCF
reunion WMO-Best-Tracks.txt:Line=18442:chikita WMO (old format)
neumann tracks.sh:Storm=1157:CHIKITA:BSH171999:Reunion HURDAT